Sandbeach, Pennsylvania
Current Conditions -  °F | °C
As of 10:56 AM on Wednesday 22 Oct 2014 (Local Time) from KMDT Reporting Station
Light Rain Light Rain  
Wind Chill: 54°   Ceiling: 2900
Heat Index: 54°   Visibility: 10mi
Dew Point: 49°   Wind: 10mph
Humidity: 83%   Direction: 340°NNW
Pressure: 29.97"   Gusts: NA
Location:  40.2634°N, 76.626°W
Report Text: KMDT 221456Z 34009KT 10SM -RA FEW022 OVC029 12/09 A2997 RMK AO2 SLP150 P0001 60002 T01220094 51012
Loading
Personal Weather Stations






























Interactive Weather Map
Tropical Storm Tracking
New forecast layout! Learn more

10-Day Weather Forecast

Advertisements
Track Severe Weather on mobile